Time;durP1;ratioP1;P1;durP2;ratioP2;P2;SDS_P1;SDS_P2;PMS_P1;PMS_P2;Temp;Humidity;BMP_temperature;BMP_pressure;BME280_temperature;BME280_humidity;BME280_pressure;Samples;Min_cycle;Max_cycle;Signal;HPM_P1;HPM_P2
2022/08/28 00:02:09;;;;;;;2.30;2.08;;;15.60;58.30;;;;;;5031840;28;20196;-34
2022/08/28 00:04:41;;;;;;;2.55;2.20;;;15.70;58.30;;;;;;5031481;28;20224;-39
2022/08/28 00:07:12;;;;;;;2.58;2.38;;;15.70;58.30;;;;;;5032479;28;20672;-36
2022/08/28 00:09:45;;;;;;;3.15;2.17;;;15.70;58.30;;;;;;5032065;28;20196;-34
2022/08/28 00:12:16;;;;;;;2.92;2.38;;;15.70;58.30;;;;;;5031841;28;20648;-35
2022/08/28 00:14:47;;;;;;;2.45;2.17;;;15.70;58.20;;;;;;5030901;28;20713;-34
2022/08/28 00:17:17;;;;;;;2.65;2.45;;;15.70;58.30;;;;;;5030734;28;20192;-36
2022/08/28 00:19:48;;;;;;;2.58;1.88;;;15.70;58.30;;;;;;5030915;28;20552;-35
2022/08/28 00:22:19;;;;;;;2.60;2.30;;;15.80;58.30;;;;;;5031620;28;20779;-36
2022/08/28 00:24:51;;;;;;;2.70;2.45;;;15.80;58.30;;;;;;5030587;28;20224;-38
2022/08/28 00:30:10;;;;;;;2.53;2.30;;;15.80;58.30;;;;;;5040273;28;20218;-37
2022/08/28 00:32:40;;;;;;;2.63;2.30;;;15.90;58.30;;;;;;5050723;28;20200;-38
2022/08/28 00:35:11;;;;;;;2.40;2.08;;;15.90;58.20;;;;;;5032087;28;20196;-37
2022/08/28 00:37:42;;;;;;;2.40;2.17;;;15.90;58.20;;;;;;5030707;28;20206;-39
2022/08/28 00:40:18;;;;;;;2.40;2.20;;;15.90;58.30;;;;;;5031725;28;20223;-34
2022/08/28 00:42:49;;;;;;;2.58;2.28;;;15.90;58.20;;;;;;5030440;28;20187;-34
2022/08/28 00:45:20;;;;;;;2.65;2.13;;;16.00;58.20;;;;;;5031022;28;20235;-36
2022/08/28 00:47:51;;;;;;;2.35;2.03;;;16.00;58.20;;;;;;5031076;28;20949;-35
2022/08/28 00:50:24;;;;;;;2.40;2.20;;;16.00;58.20;;;;;;5021638;28;20230;-35
2022/08/28 00:52:58;;;;;;;2.40;2.20;;;16.00;58.20;;;;;;5031427;28;20200;-35
2022/08/28 00:55:31;;;;;;;2.47;2.25;;;16.00;58.20;;;;;;5030829;28;20231;-35
2022/08/28 00:58:02;;;;;;;3.08;2.60;;;16.00;58.20;;;;;;5030962;28;20200;-34
2022/08/28 01:00:37;;;;;;;2.67;2.38;;;16.10;58.20;;;;;;5031398;28;20691;-35
2022/08/28 01:03:08;;;;;;;2.17;1.98;;;16.10;58.20;;;;;;5030884;28;20824;-34
2022/08/28 01:05:42;;;;;;;2.60;2.40;;;16.20;58.20;;;;;;5030780;28;20219;-35
2022/08/28 01:08:13;;;;;;;2.33;2.13;;;16.20;58.20;;;;;;5030856;28;20196;-36
2022/08/28 01:10:48;;;;;;;2.63;2.42;;;16.20;58.20;;;;;;5031502;28;20819;-34
2022/08/28 01:13:19;;;;;;;2.17;1.98;;;16.20;58.20;;;;;;5030438;28;20191;-35
2022/08/28 01:15:51;;;;;;;2.92;2.38;;;16.30;58.20;;;;;;5030676;28;20196;-35
2022/08/28 01:18:23;;;;;;;2.53;2.30;;;16.30;58.20;;;;;;5030987;28;20767;-36
2022/08/28 01:21:00;;;;;;;2.40;2.20;;;16.30;58.20;;;;;;5030730;28;20699;-38
2022/08/28 01:23:54;;;;;;;2.40;2.20;;;16.30;58.20;;;;;;5030943;28;20200;-42
2022/08/28 01:26:27;;;;;;;2.50;2.30;;;16.30;58.20;;;;;;5031095;28;20223;-37
2022/08/28 01:28:59;;;;;;;2.38;2.10;;;16.40;58.20;;;;;;5030369;28;20682;-35
2022/08/28 01:31:31;;;;;;;2.65;2.40;;;16.40;58.20;;;;;;5029696;28;20267;-34
2022/08/28 01:34:02;;;;;;;2.30;2.10;;;16.40;58.10;;;;;;5030903;28;20566;-34
2022/08/28 01:36:33;;;;;;;2.40;2.20;;;16.40;58.10;;;;;;5031265;28;20200;-34
2022/08/28 01:39:08;;;;;;;2.25;2.10;;;16.40;58.10;;;;;;5033570;28;20200;-34
2022/08/28 01:41:44;;;;;;;2.50;2.30;;;16.50;58.20;;;;;;5034681;28;20211;-38
2022/08/28 01:44:16;;;;;;;2.53;2.33;;;16.50;58.20;;;;;;5034205;28;20226;-40
2022/08/28 01:46:47;;;;;;;2.47;2.28;;;16.50;58.20;;;;;;5034159;28;20246;-35
2022/08/28 01:49:18;;;;;;;2.67;2.35;;;16.50;58.20;;;;;;5033855;28;20188;-35
2022/08/28 01:51:49;;;;;;;2.53;2.33;;;16.50;58.20;;;;;;5052996;28;20569;-35
2022/08/28 01:54:20;;;;;;;2.65;2.45;;;16.50;58.20;;;;;;5036689;28;20201;-35
2022/08/28 01:56:53;;;;;;;2.70;2.22;;;16.50;58.20;;;;;;5033583;28;20204;-36
2022/08/28 01:59:24;;;;;;;2.30;2.10;;;16.60;58.20;;;;;;5034586;28;20565;-36
2022/08/28 02:01:55;;;;;;;2.20;2.00;;;16.60;58.20;;;;;;5035336;28;20228;-36
2022/08/28 02:04:26;;;;;;;3.00;2.70;;;16.60;58.20;;;;;;5033809;28;20285;-35
2022/08/28 02:06:56;;;;;;;2.33;2.13;;;16.60;58.10;;;;;;5049203;28;20659;-40
2022/08/28 02:09:27;;;;;;;2.45;2.25;;;16.60;58.10;;;;;;5032230;28;20250;-35
2022/08/28 02:12:00;;;;;;;2.40;2.20;;;16.70;58.20;;;;;;5031070;28;20590;-36
2022/08/28 02:14:30;;;;;;;2.47;2.28;;;16.70;58.20;;;;;;5033523;28;20196;-38
2022/08/28 02:17:01;;;;;;;2.38;2.17;;;16.70;58.20;;;;;;5032853;28;20208;-43
2022/08/28 02:19:32;;;;;;;2.80;2.25;;;16.70;58.20;;;;;;5031729;28;20553;-36
2022/08/28 02:22:06;;;;;;;2.30;2.10;;;16.70;58.20;;;;;;5032380;28;20204;-35
2022/08/28 02:24:37;;;;;;;2.45;2.25;;;16.70;58.10;;;;;;5024958;28;20225;-38
2022/08/28 02:27:10;;;;;;;2.53;2.30;;;16.70;58.20;;;;;;5032401;28;20196;-35
2022/08/28 02:29:41;;;;;;;2.08;1.98;;;16.80;58.20;;;;;;5032993;28;20670;-35
2022/08/28 02:32:11;;;;;;;2.30;2.10;;;16.80;58.10;;;;;;5031703;28;20208;-35
2022/08/28 02:34:42;;;;;;;2.42;2.22;;;16.80;58.20;;;;;;5030137;28;20196;-40
2022/08/28 02:37:13;;;;;;;2.78;2.40;;;16.80;58.10;;;;;;5030671;28;20192;-35
2022/08/28 02:39:44;;;;;;;2.45;2.25;;;16.80;58.20;;;;;;5031930;28;20283;-35
2022/08/28 02:42:17;;;;;;;3.05;2.70;;;16.80;58.20;;;;;;5030054;28;20207;-35
2022/08/28 02:44:48;;;;;;;2.33;2.05;;;16.90;58.20;;;;;;5025053;28;20838;-36
2022/08/28 02:47:19;;;;;;;2.03;1.90;;;16.90;58.20;;;;;;5031998;28;20230;-39
2022/08/28 02:49:49;;;;;;;2.35;2.15;;;16.90;58.20;;;;;;5030081;28;20200;-41
2022/08/28 02:52:21;;;;;;;2.10;1.90;;;16.90;58.20;;;;;;5032408;28;20200;-38
2022/08/28 02:54:51;;;;;;;3.05;2.63;;;16.90;58.20;;;;;;5032769;28;20207;-36
2022/08/28 02:57:24;;;;;;;2.45;2.10;;;16.90;58.20;;;;;;5031824;28;20200;-39
2022/08/28 02:59:55;;;;;;;2.80;2.60;;;16.90;58.20;;;;;;5030186;28;20196;-35
2022/08/28 03:02:26;;;;;;;2.40;2.20;;;16.90;58.20;;;;;;5049079;28;20195;-44
2022/08/28 03:04:58;;;;;;;2.40;2.20;;;16.90;58.20;;;;;;5033657;28;20200;-38
2022/08/28 03:07:29;;;;;;;2.60;2.40;;;16.90;58.10;;;;;;5033680;28;20196;-38
2022/08/28 03:10:00;;;;;;;3.30;2.50;;;16.90;58.20;;;;;;5034111;28;20220;-43
2022/08/28 03:12:32;;;;;;;2.55;2.35;;;17.00;58.20;;;;;;5013916;28;20568;-36
2022/08/28 03:15:04;;;;;;;4.53;2.40;;;17.00;58.20;;;;;;5013204;28;20201;-50
2022/08/28 03:17:35;;;;;;;4.20;2.60;;;17.00;57.40;;;;;;5025605;28;20612;-48
2022/08/28 03:20:07;;;;;;;5.15;2.83;;;16.90;55.70;;;;;;5032661;28;20219;-53
2022/08/28 03:25:24;;;;;;;2.67;2.15;;;16.70;54.20;;;;;;5015833;28;20227;-51
2022/08/28 03:27:57;;;;;;;2.72;2.20;;;16.60;53.70;;;;;;5033498;28;20659;-54
2022/08/28 03:30:28;;;;;;;5.45;1.98;;;16.60;54.00;;;;;;5032892;28;20212;-48
2022/08/28 03:32:59;;;;;;;2.88;1.75;;;16.50;54.00;;;;;;5033400;28;20200;-46
2022/08/28 03:35:31;;;;;;;3.55;2.45;;;16.40;53.90;;;;;;5032766;28;20206;-50
2022/08/28 03:38:01;;;;;;;5.65;2.63;;;16.30;54.30;;;;;;5033588;28;20188;-52
2022/08/28 03:40:33;;;;;;;8.93;2.78;;;16.20;54.40;;;;;;5034656;28;20569;-52
2022/08/28 03:43:05;;;;;;;4.65;2.58;;;16.20;54.60;;;;;;5053598;28;20619;-45
2022/08/28 03:45:36;;;;;;;4.35;3.30;;;16.10;55.10;;;;;;5053066;28;20234;-37
2022/08/28 03:48:07;;;;;;;4.60;2.80;;;16.00;55.40;;;;;;5035668;28;20196;-39
2022/08/28 03:50:37;;;;;;;5.72;3.17;;;16.00;55.70;;;;;;5032657;28;20216;-37
2022/08/28 03:53:08;;;;;;;4.10;2.97;;;16.00;55.90;;;;;;5032519;28;20196;-36
2022/08/28 03:55:41;;;;;;;2.85;2.55;;;16.00;56.10;;;;;;5032680;28;20196;-35
2022/08/28 03:58:13;;;;;;;3.75;2.72;;;16.00;56.30;;;;;;5032293;28;20196;-38
2022/08/28 04:00:44;;;;;;;3.75;3.03;;;16.00;56.40;;;;;;5032536;28;20215;-35
2022/08/28 04:03:15;;;;;;;4.35;2.83;;;16.00;56.50;;;;;;5032368;28;20196;-40
2022/08/28 04:05:47;;;;;;;4.45;2.60;;;16.00;56.60;;;;;;5031337;28;20302;-36
2022/08/28 04:08:18;;;;;;;4.93;3.00;;;16.10;56.60;;;;;;5032034;28;20203;-35
2022/08/28 04:10:50;;;;;;;4.55;3.35;;;16.10;56.60;;;;;;5032508;28;20232;-35
2022/08/28 04:13:23;;;;;;;5.35;3.33;;;16.10;56.60;;;;;;5037338;23;20232;-51
2022/08/28 04:16:04;;;;;;;3.25;2.95;;;16.20;56.70;;;;;;5005934;28;20196;-54
2022/08/28 04:18:35;;;;;;;4.43;3.20;;;16.20;56.70;;;;;;4973603;28;20202;-53
2022/08/28 04:21:08;;;;;;;4.10;3.05;;;16.20;56.70;;;;;;4989360;28;20220;-55
2022/08/28 04:23:39;;;;;;;4.97;3.60;;;16.20;56.60;;;;;;5013050;28;20225;-57
2022/08/28 04:26:11;;;;;;;3.58;2.97;;;16.30;56.70;;;;;;5012263;28;20752;-51
2022/08/28 04:28:44;;;;;;;3.38;3.08;;;16.30;56.70;;;;;;4997197;28;20220;-57
2022/08/28 04:31:15;;;;;;;4.00;3.35;;;16.30;56.80;;;;;;4998197;28;20266;-57
2022/08/28 04:36:18;;;;;;;3.83;2.90;;;16.30;56.80;;;;;;5015614;22;20228;-50
2022/08/28 04:38:49;;;;;;;3.55;2.83;;;16.40;56.90;;;;;;5028866;28;20196;-52
2022/08/28 04:41:20;;;;;;;3.80;3.00;;;16.40;56.90;;;;;;5031035;28;20188;-49
2022/08/28 04:43:56;;;;;;;3.55;2.72;;;16.40;57.30;;;;;;5026145;28;20246;-46
2022/08/28 04:46:27;;;;;;;3.50;2.97;;;16.40;58.30;;;;;;5049277;28;20254;-47
2022/08/28 04:48:58;;;;;;;3.65;3.20;;;16.50;57.80;;;;;;5039261;28;20195;-50
2022/08/28 04:51:29;;;;;;;4.57;3.35;;;16.50;57.40;;;;;;5049989;28;20226;-48
2022/08/28 04:54:04;;;;;;;3.20;2.90;;;16.50;57.10;;;;;;5041775;28;20719;-53
2022/08/28 04:56:34;;;;;;;3.33;2.03;;;16.50;57.00;;;;;;5046881;28;20215;-56
2022/08/28 04:59:07;;;;;;;2.35;1.80;;;16.50;56.90;;;;;;5030101;28;20200;-54
2022/08/28 05:01:38;;;;;;;3.72;2.13;;;16.50;56.90;;;;;;5031232;28;20195;-56
2022/08/28 05:04:10;;;;;;;3.55;2.28;;;16.50;56.90;;;;;;5029748;28;20231;-55
2022/08/28 05:06:44;;;;;;;2.35;2.10;;;16.50;56.90;;;;;;5043452;28;20553;-47
2022/08/28 05:09:17;;;;;;;2.17;1.92;;;16.50;56.90;;;;;;5055144;28;20202;-56
2022/08/28 05:11:48;;;;;;;2.10;1.90;;;16.50;57.00;;;;;;5049594;28;20199;-51
2022/08/28 05:14:21;;;;;;;2.92;2.30;;;16.40;57.00;;;;;;5049397;28;20215;-49
2022/08/28 05:16:56;;;;;;;2.22;1.83;;;16.50;57.30;;;;;;5049787;28;20554;-55
2022/08/28 05:19:27;;;;;;;2.60;1.92;;;16.50;57.40;;;;;;5049750;28;20345;-54
2022/08/28 05:21:58;;;;;;;3.45;1.98;;;16.50;57.60;;;;;;5049586;28;20206;-54
2022/08/28 05:24:29;;;;;;;2.15;1.95;;;16.50;57.60;;;;;;5049812;28;20219;-55
2022/08/28 05:27:00;;;;;;;2.20;2.00;;;16.40;57.50;;;;;;5045632;28;20898;-53
2022/08/28 05:29:32;;;;;;;3.25;2.00;;;16.40;57.50;;;;;;5029926;28;20203;-55
2022/08/28 05:32:03;;;;;;;2.20;2.00;;;16.50;57.60;;;;;;5047397;28;20196;-54
2022/08/28 06:34:10;;;;;;;2.72;2.47;;;16.50;57.40;;;;;;5815032;22;20247;-35
2022/08/28 06:36:43;;;;;;;2.42;2.22;;;16.50;57.40;;;;;;5013015;28;20223;-45
2022/08/28 06:39:14;;;;;;;3.90;2.80;;;16.50;57.40;;;;;;5013132;28;20197;-38
2022/08/28 06:41:46;;;;;;;2.55;2.28;;;16.50;57.40;;;;;;5012313;28;20636;-46
2022/08/28 06:44:19;;;;;;;2.60;2.40;;;16.50;57.40;;;;;;5012962;28;20683;-43
2022/08/28 06:46:51;;;;;;;3.20;2.65;;;16.50;57.30;;;;;;5012181;28;20260;-47
2022/08/28 06:49:24;;;;;;;3.85;2.95;;;16.40;57.30;;;;;;5013221;28;20539;-38
2022/08/28 06:51:54;;;;;;;3.17;2.58;;;16.40;57.30;;;;;;5012539;28;20201;-47
2022/08/28 06:54:25;;;;;;;3.08;2.78;;;16.50;57.40;;;;;;5012788;28;20221;-47
2022/08/28 06:56:56;;;;;;;3.60;2.38;;;16.50;57.40;;;;;;5012996;28;20307;-48
2022/08/28 06:59:26;;;;;;;3.83;2.67;;;16.50;57.50;;;;;;5012482;28;20200;-39
2022/08/28 07:01:57;;;;;;;4.93;3.08;;;16.50;57.50;;;;;;5013053;28;20196;-35
2022/08/28 07:04:30;;;;;;;4.50;2.85;;;16.50;57.60;;;;;;5011999;28;20227;-37
2022/08/28 07:07:00;;;;;;;3.83;3.00;;;16.40;57.50;;;;;;5012442;28;20229;-37
2022/08/28 07:09:31;;;;;;;2.83;2.45;;;16.50;57.60;;;;;;5011922;28;20205;-45
2022/08/28 07:12:02;;;;;;;3.20;2.50;;;16.40;57.50;;;;;;5012856;28;20196;-36
2022/08/28 07:14:32;;;;;;;3.28;2.97;;;16.40;57.60;;;;;;5012573;28;20260;-44
2022/08/28 07:17:03;;;;;;;3.25;2.92;;;16.40;57.60;;;;;;5012447;28;20208;-37
2022/08/28 07:19:36;;;;;;;3.03;2.72;;;16.40;57.50;;;;;;5012253;28;20208;-38
2022/08/28 07:22:07;;;;;;;3.35;2.90;;;16.40;57.50;;;;;;5012613;28;20212;-44
2022/08/28 07:24:37;;;;;;;3.30;2.67;;;16.40;57.50;;;;;;5011374;28;20220;-45
2022/08/28 07:27:08;;;;;;;3.38;2.80;;;16.40;57.50;;;;;;5012131;28;20225;-38
2022/08/28 07:29:39;;;;;;;3.03;2.72;;;16.40;57.50;;;;;;5012544;28;20205;-37
2022/08/28 07:32:09;;;;;;;3.28;2.95;;;16.40;57.50;;;;;;5011674;28;20208;-42
2022/08/28 07:34:43;;;;;;;4.78;3.22;;;16.40;57.50;;;;;;5011737;28;20256;-35
2022/08/28 07:37:13;;;;;;;3.00;2.70;;;16.40;57.60;;;;;;5011695;28;20193;-41
2022/08/28 07:39:44;;;;;;;2.83;2.60;;;16.30;57.60;;;;;;5012268;28;20201;-39
2022/08/28 07:44:48;;;;;;;3.70;2.90;;;16.30;57.60;;;;;;5012036;28;20197;-46
2022/08/28 07:45:04;;;;;;;3.72;2.83;;;16.30;57.60;;;;;;5012279;28;20229;-36
2022/08/28 07:47:37;;;;;;;3.15;2.80;;;16.30;57.60;;;;;;5011999;28;20219;-42
2022/08/28 07:50:10;;;;;;;3.15;2.53;;;16.30;57.60;;;;;;5014025;28;20224;-43
2022/08/28 07:52:41;;;;;;;3.13;2.80;;;16.30;57.60;;;;;;5010704;28;20215;-38
2022/08/28 07:55:12;;;;;;;3.70;2.95;;;16.30;57.60;;;;;;5011462;28;20221;-45
2022/08/28 07:57:42;;;;;;;2.90;2.70;;;16.30;57.60;;;;;;5011485;28;20203;-38
2022/08/28 08:00:14;;;;;;;3.58;2.88;;;16.30;57.70;;;;;;5029362;28;20681;-38
2022/08/28 08:02:45;;;;;;;3.38;2.83;;;16.30;57.60;;;;;;5030123;28;20211;-41
2022/08/28 08:05:17;;;;;;;3.50;3.00;;;16.20;57.60;;;;;;5030519;28;20216;-35
2022/08/28 08:07:48;;;;;;;3.58;3.05;;;16.20;57.60;;;;;;5027790;28;20227;-43
2022/08/28 08:10:19;;;;;;;3.58;2.70;;;16.20;57.70;;;;;;5010539;28;20200;-37
2022/08/28 08:12:49;;;;;;;3.42;3.08;;;16.20;57.70;;;;;;5010405;28;20197;-34
2022/08/28 08:15:20;;;;;;;3.38;2.60;;;16.20;57.70;;;;;;5009803;28;20217;-39
2022/08/28 08:17:51;;;;;;;2.88;2.55;;;16.10;57.70;;;;;;5012477;28;20284;-39
2022/08/28 08:20:23;;;;;;;3.10;2.78;;;16.10;57.70;;;;;;5009812;28;20223;-41
2022/08/28 08:22:54;;;;;;;3.20;2.85;;;16.10;57.70;;;;;;5009840;28;20655;-34
2022/08/28 08:25:25;;;;;;;3.53;2.47;;;16.10;57.70;;;;;;5009015;28;20304;-37
2022/08/28 08:27:57;;;;;;;3.55;2.78;;;16.10;57.70;;;;;;5009804;28;20228;-39
2022/08/28 08:30:27;;;;;;;3.28;2.75;;;16.10;57.70;;;;;;5009747;28;20200;-38
2022/08/28 08:32:58;;;;;;;2.72;2.53;;;16.10;57.70;;;;;;5009711;28;20728;-42
2022/08/28 08:35:30;;;;;;;3.60;2.75;;;16.00;57.70;;;;;;5010311;28;20695;-40
2022/08/28 08:38:01;;;;;;;3.28;2.90;;;16.00;57.70;;;;;;5009797;28;20201;-43
2022/08/28 08:40:32;;;;;;;2.88;2.47;;;16.00;57.80;;;;;;5010057;28;20205;-37
2022/08/28 08:43:04;;;;;;;2.80;2.55;;;16.00;57.80;;;;;;5010174;28;20208;-44
2022/08/28 08:45:37;;;;;;;3.30;2.55;;;15.90;57.80;;;;;;5009449;28;20671;-41
2022/08/28 08:48:12;;;;;;;3.80;3.15;;;15.90;57.80;;;;;;5009392;28;20228;-41
2022/08/28 08:50:45;;;;;;;2.92;2.67;;;15.90;57.80;;;;;;5009510;28;20683;-37
2022/08/28 08:53:29;;;;;;;3.75;2.70;;;15.90;57.80;;;;;;5009628;28;20208;-45
2022/08/28 08:56:01;;;;;;;2.90;2.63;;;15.90;57.80;;;;;;5009761;28;20200;-40
2022/08/28 08:58:36;;;;;;;3.13;2.83;;;15.90;57.80;;;;;;5009810;28;20712;-43
2022/08/28 09:01:17;;;;;;;2.80;2.35;;;15.90;57.80;;;;;;5009497;28;20196;-40
2022/08/28 09:03:56;;;;;;;2.72;2.53;;;15.90;57.80;;;;;;5009872;28;20223;-45
2022/08/28 09:06:37;;;;;;;2.47;2.25;;;15.90;57.80;;;;;;5009447;28;20863;-40
2022/08/28 09:09:15;;;;;;;2.80;2.60;;;15.80;57.90;;;;;;5009496;28;20251;-44
2022/08/28 09:11:55;;;;;;;3.15;2.70;;;15.80;57.90;;;;;;5009450;28;20707;-41
2022/08/28 09:14:33;;;;;;;3.00;2.70;;;15.80;58.50;;;;;;5009140;28;20227;-36
2022/08/28 09:17:05;;;;;;;3.10;2.75;;;15.80;58.30;;;;;;5006461;28;20196;-47
2022/08/28 09:19:35;;;;;;;2.92;2.38;;;15.80;58.50;;;;;;5011354;28;20192;-38
2022/08/28 09:22:08;;;;;;;2.53;2.22;;;15.70;58.40;;;;;;5008908;28;20196;-40
2022/08/28 09:24:40;;;;;;;2.50;2.30;;;15.80;58.30;;;;;;5010225;28;20216;-48
2022/08/28 09:27:24;;;;;;;3.22;2.60;;;15.80;58.30;;;;;;5009736;28;20228;-36
2022/08/28 09:29:59;;;;;;;3.03;2.72;;;15.70;58.10;;;;;;5010277;28;20204;-39
2022/08/28 09:32:34;;;;;;;3.50;2.80;;;15.80;58.20;;;;;;5010047;28;20562;-45
2022/08/28 09:35:12;;;;;;;3.63;3.15;;;15.80;58.20;;;;;;5010947;28;20611;-35
2022/08/28 09:37:46;;;;;;;3.30;2.63;;;15.70;58.10;;;;;;5010190;28;20222;-44
2022/08/28 09:40:23;;;;;;;2.83;2.47;;;15.70;58.10;;;;;;5009658;28;20193;-48
2022/08/28 09:46:02;;;;;;;3.15;2.85;;;15.70;58.20;;;;;;5010368;28;20200;-53
2022/08/28 09:48:38;;;;;;;3.55;2.72;;;15.70;58.20;;;;;;5009299;28;20769;-39
2022/08/28 09:51:11;;;;;;;3.60;3.22;;;15.60;58.20;;;;;;5009387;28;20200;-46
2022/08/28 09:53:57;;;;;;;3.20;2.72;;;15.60;58.20;;;;;;5012867;28;20221;-51
2022/08/28 09:56:32;;;;;;;3.35;3.05;;;15.60;58.20;;;;;;5008734;28;20197;-38
2022/08/28 09:59:04;;;;;;;3.15;2.88;;;15.60;58.20;;;;;;5012051;28;20200;-48
2022/08/28 10:01:48;;;;;;;2.85;2.65;;;15.60;58.20;;;;;;5013744;28;20553;-49
2022/08/28 10:04:32;;;;;;;3.40;2.80;;;15.60;58.10;;;;;;5013835;28;20704;-45
2022/08/28 10:07:07;;;;;;;3.47;3.17;;;15.60;58.10;;;;;;5013006;28;20200;-46
2022/08/28 10:09:48;;;;;;;3.42;2.97;;;15.60;58.10;;;;;;5013452;28;20208;-35
2022/08/28 10:12:31;;;;;;;3.00;2.70;;;15.60;58.20;;;;;;5013346;28;20282;-41
2022/08/28 10:15:09;;;;;;;3.88;3.17;;;15.60;58.20;;;;;;5013331;28;20589;-49
2022/08/28 10:17:50;;;;;;;3.33;3.00;;;15.50;58.20;;;;;;5013153;28;20189;-40
2022/08/28 10:20:26;;;;;;;3.88;3.33;;;15.50;58.20;;;;;;5013971;28;20605;-43
2022/08/28 10:23:01;;;;;;;3.28;2.95;;;15.50;58.20;;;;;;5013755;28;20200;-40
2022/08/28 10:25:40;;;;;;;3.35;3.05;;;15.50;58.30;;;;;;4993555;28;20231;-43
2022/08/28 10:28:33;;;;;;;4.05;3.20;;;15.50;58.30;;;;;;5011617;28;20231;-47
2022/08/28 10:31:10;;;;;;;3.55;3.10;;;15.50;58.20;;;;;;5013784;28;20644;-37
2022/08/28 10:34:01;;;;;;;3.30;3.00;;;15.50;58.20;;;;;;5013895;28;20225;-40
2022/08/28 10:36:34;;;;;;;3.33;3.00;;;15.50;58.20;;;;;;5013511;28;20208;-42
2022/08/28 10:39:20;;;;;;;3.42;3.10;;;15.50;58.10;;;;;;5013135;28;20211;-39
2022/08/28 10:41:59;;;;;;;3.42;3.13;;;15.50;58.20;;;;;;5013736;28;20200;-40
2022/08/28 10:44:37;;;;;;;3.85;3.40;;;15.50;58.20;;;;;;5012748;28;20224;-34
2022/08/28 10:47:09;;;;;;;4.13;3.50;;;15.40;58.20;;;;;;5013093;28;20200;-42
2022/08/28 10:49:43;;;;;;;3.63;3.33;;;15.40;58.20;;;;;;5012979;28;20205;-36
2022/08/28 10:52:18;;;;;;;3.28;2.97;;;15.40;58.20;;;;;;5011776;28;20204;-45
2022/08/28 10:54:54;;;;;;;3.78;3.08;;;15.40;58.20;;;;;;5013197;28;20223;-35
2022/08/28 10:57:35;;;;;;;3.58;3.10;;;15.30;58.20;;;;;;5012917;28;20207;-42
2022/08/28 11:00:10;;;;;;;3.90;3.20;;;15.30;58.20;;;;;;5013321;28;20196;-47
2022/08/28 11:02:43;;;;;;;4.28;3.28;;;15.30;58.20;;;;;;5012941;28;20526;-42
2022/08/28 11:05:14;;;;;;;4.15;3.65;;;15.30;58.20;;;;;;5012899;28;21005;-46
2022/08/28 11:07:49;;;;;;;3.72;2.90;;;15.30;58.20;;;;;;5012402;28;20614;-47
2022/08/28 11:10:25;;;;;;;3.75;3.30;;;15.30;58.10;;;;;;5011364;28;20655;-40
2022/08/28 11:12:57;;;;;;;4.30;3.30;;;15.30;58.20;;;;;;5012018;28;20200;-35
2022/08/28 11:15:52;;;;;;;4.30;3.50;;;15.30;58.20;;;;;;5012281;28;20595;-43
2022/08/28 11:18:59;;;;;;;3.63;2.88;;;15.30;58.20;;;;;;5011987;28;20612;-47
2022/08/28 11:21:34;;;;;;;3.03;2.72;;;15.20;58.20;;;;;;5012397;28;20201;-39
2022/08/28 11:24:10;;;;;;;3.35;2.85;;;15.20;58.20;;;;;;5012748;28;20228;-35
2022/08/28 11:26:49;;;;;;;3.50;2.97;;;15.20;58.30;;;;;;5011840;28;20192;-38
2022/08/28 11:29:48;;;;;;;3.35;3.05;;;15.20;58.30;;;;;;5011099;28;20278;-47
2022/08/28 11:32:40;;;;;;;3.63;3.30;;;15.10;58.30;;;;;;4978885;28;20208;-42
2022/08/28 11:35:41;;;;;;;3.28;2.92;;;15.20;58.30;;;;;;5010745;28;20225;-35
2022/08/28 11:38:12;;;;;;;3.78;2.90;;;15.10;58.20;;;;;;5010673;28;20207;-40
2022/08/28 11:41:11;;;;;;;3.35;2.88;;;15.10;58.20;;;;;;5011207;28;20205;-39
2022/08/28 11:43:43;;;;;;;3.58;3.00;;;15.10;58.80;;;;;;5011158;28;20720;-37
2022/08/28 11:46:26;;;;;;;2.85;2.55;;;15.10;58.20;;;;;;5011231;28;20205;-45
2022/08/28 11:49:00;;;;;;;3.38;2.85;;;15.10;58.20;;;;;;5010783;28;20594;-39
2022/08/28 11:51:54;;;;;;;3.00;2.67;;;15.10;58.30;;;;;;5010220;28;20200;-35
2022/08/28 11:54:36;;;;;;;3.35;3.05;;;15.00;58.20;;;;;;5012730;28;20213;-36
2022/08/28 11:57:12;;;;;;;3.65;3.10;;;15.00;58.20;;;;;;5010139;28;20272;-39
2022/08/28 12:00:06;;;;;;;3.70;2.80;;;15.00;58.20;;;;;;5010159;28;20606;-40
2022/08/28 12:03:09;;;;;;;3.38;3.08;;;15.00;58.20;;;;;;5010471;28;20200;-35
2022/08/28 12:05:55;;;;;;;3.03;2.70;;;14.90;58.20;;;;;;5009961;28;20202;-34
2022/08/28 12:09:10;;;;;;;3.30;3.00;;;15.00;58.20;;;;;;5009780;28;20711;-35
2022/08/28 12:12:12;;;;;;;2.78;2.58;;;14.90;58.20;;;;;;4991040;28;20210;-38
2022/08/28 12:15:06;;;;;;;3.22;2.92;;;14.90;58.20;;;;;;4990761;28;20213;-39
2022/08/28 12:17:52;;;;;;;3.00;2.63;;;14.90;58.20;;;;;;4990775;28;20232;-44
2022/08/28 12:20:42;;;;;;;2.95;2.63;;;14.90;58.20;;;;;;4991056;28;20614;-38
2022/08/28 12:23:40;;;;;;;3.15;2.67;;;14.80;58.20;;;;;;5008793;28;20420;-35
2022/08/28 12:26:21;;;;;;;3.08;2.78;;;14.90;58.30;;;;;;5009976;28;20558;-37
2022/08/28 12:28:55;;;;;;;2.90;2.60;;;14.80;58.20;;;;;;5009961;28;20232;-34
2022/08/28 12:32:15;;;;;;;3.70;2.60;;;14.80;58.80;;;;;;5009902;28;20212;-36
2022/08/28 12:34:53;;;;;;;4.35;2.80;;;14.80;58.80;;;;;;4987415;28;20232;-34
2022/08/28 12:37:33;;;;;;;3.47;2.47;;;14.80;58.20;;;;;;5009806;28;20201;-34
2022/08/28 12:40:16;;;;;;;2.85;2.63;;;14.70;58.20;;;;;;4990254;28;20198;-34
2022/08/28 12:42:53;;;;;;;2.95;2.63;;;14.70;58.20;;;;;;4990393;28;20201;-36
2022/08/28 12:45:30;;;;;;;3.05;2.78;;;14.70;58.20;;;;;;4990222;28;20244;-34
2022/08/28 12:48:03;;;;;;;2.67;2.47;;;14.70;58.20;;;;;;4990179;28;20221;-34
2022/08/28 12:50:37;;;;;;;3.83;3.17;;;14.70;58.20;;;;;;4990335;28;20204;-34
2022/08/28 12:53:17;;;;;;;3.42;3.10;;;14.70;58.10;;;;;;4989588;28;20201;-38
2022/08/28 12:55:50;;;;;;;3.30;2.75;;;14.70;58.20;;;;;;4989554;28;20204;-35
2022/08/28 12:58:32;;;;;;;2.92;2.60;;;14.70;58.20;;;;;;4989728;28;20264;-34
2022/08/28 13:01:05;;;;;;;3.25;2.60;;;14.70;58.20;;;;;;4989043;28;20197;-36
2022/08/28 13:03:36;;;;;;;2.72;2.53;;;14.70;58.20;;;;;;4988935;28;20699;-37
2022/08/28 13:06:10;;;;;;;3.50;2.80;;;14.60;58.10;;;;;;4992795;28;20207;-36
2022/08/28 13:08:41;;;;;;;3.72;2.80;;;14.70;58.10;;;;;;5008583;28;20216;-38
2022/08/28 13:11:19;;;;;;;2.80;2.60;;;14.60;58.10;;;;;;5008806;28;20207;-35
2022/08/28 13:13:52;;;;;;;2.92;2.63;;;14.60;58.10;;;;;;5009367;28;20224;-34
2022/08/28 13:16:43;;;;;;;3.03;2.50;;;14.60;58.10;;;;;;5009432;28;20540;-36
2022/08/28 13:19:27;;;;;;;3.67;3.03;;;14.60;58.10;;;;;;5009392;28;20284;-34
2022/08/28 13:22:00;;;;;;;2.90;2.28;;;14.60;58.00;;;;;;5009202;28;20599;-35
2022/08/28 13:24:43;;;;;;;3.63;2.58;;;14.50;58.00;;;;;;5009474;28;20251;-34
2022/08/28 13:27:25;;;;;;;2.63;2.42;;;14.50;58.00;;;;;;5009418;28;20201;-35
2022/08/28 13:30:07;;;;;;;2.60;2.40;;;14.50;58.00;;;;;;5009238;28;20275;-36
2022/08/28 13:32:40;;;;;;;3.08;2.78;;;14.50;58.00;;;;;;5009533;28;20296;-34
2022/08/28 13:35:32;;;;;;;3.05;2.60;;;14.50;58.00;;;;;;5012956;28;20716;-38
2022/08/28 13:38:03;;;;;;;2.80;2.38;;;14.50;58.00;;;;;;5012502;28;20200;-34
2022/08/28 13:40:39;;;;;;;2.80;2.60;;;14.50;57.90;;;;;;5012934;28;20197;-35
2022/08/28 13:43:12;;;;;;;2.50;2.30;;;14.40;57.90;;;;;;5012716;28;20208;-34
2022/08/28 13:45:45;;;;;;;2.83;2.20;;;14.40;57.90;;;;;;5015278;28;20196;-35
2022/08/28 13:48:17;;;;;;;2.88;2.45;;;14.40;57.90;;;;;;5012474;28;20220;-39
2022/08/28 13:50:49;;;;;;;2.67;2.35;;;14.40;57.90;;;;;;5013179;28;20276;-39
2022/08/28 13:53:21;;;;;;;2.42;2.22;;;14.30;57.90;;;;;;5012739;28;20212;-42
2022/08/28 13:55:53;;;;;;;3.10;2.63;;;14.40;58.00;;;;;;5012732;28;20197;-39
2022/08/28 13:58:25;;;;;;;2.40;2.13;;;14.40;58.00;;;;;;5012414;28;20200;-35
2022/08/28 14:00:56;;;;;;;2.50;2.30;;;14.30;57.90;;;;;;5013083;28;20668;-34
2022/08/28 14:03:38;;;;;;;2.60;2.40;;;14.30;57.90;;;;;;5012891;28;20196;-41
2022/08/28 14:06:11;;;;;;;2.70;2.50;;;14.30;57.90;;;;;;5012100;28;20300;-36
2022/08/28 14:08:44;;;;;;;2.95;2.40;;;14.30;57.80;;;;;;5012528;28;20268;-38
2022/08/28 14:11:16;;;;;;;3.15;2.72;;;14.30;57.90;;;;;;5012891;28;20236;-42
2022/08/28 14:13:49;;;;;;;3.25;2.40;;;14.30;57.90;;;;;;5012699;28;20704;-45
2022/08/28 14:16:20;;;;;;;2.53;2.30;;;14.30;57.80;;;;;;5012686;28;20208;-42
2022/08/28 14:18:51;;;;;;;2.63;2.33;;;14.30;57.90;;;;;;5012344;28;20209;-38
2022/08/28 14:21:23;;;;;;;2.90;2.30;;;14.20;57.80;;;;;;5012546;28;20680;-35
2022/08/28 14:23:54;;;;;;;2.45;2.25;;;14.20;57.80;;;;;;5012643;28;20217;-44
2022/08/28 14:26:24;;;;;;;2.40;2.20;;;14.20;57.90;;;;;;5012187;28;20204;-35
2022/08/28 14:28:59;;;;;;;3.22;2.55;;;14.20;57.90;;;;;;5012259;28;20224;-34
2022/08/28 14:31:30;;;;;;;2.45;2.17;;;14.20;57.90;;;;;;5014211;28;20199;-34
2022/08/28 14:34:00;;;;;;;2.60;2.40;;;14.20;57.90;;;;;;5022282;23;20225;-35
2022/08/28 14:36:32;;;;;;;2.42;2.10;;;14.20;57.90;;;;;;4954878;28;20226;-35
2022/08/28 14:39:04;;;;;;;2.45;2.25;;;14.20;57.90;;;;;;4972771;28;20217;-35